Airfield :
LOGIN :

Register | Disclaimer

   EN    FR    IT 

 










Legend :    VFR   Marginal VFR   IFR   Intensive IFR   Very Intensive IFR
Visi :
Ceiling :
>= 8 km
>= 3000ft
5 to 8 km
1000 to 3000 ft
1500m to 5 km
500 to 1000 ft
800 to 1500m
200 to 500 ft
< 800m
< 200 ft
Symbols :   Thunderstorms  Fog  Heavy snow  Heavy precipitations  Wind > 20 kt
SIGMETs :     Misc.  Thunderstorms  Icing  Turbulence  Mountain Waves  Volcanic Ashes







- Airport Elevation : 247 ft
- IATA code : BLL


EKBI - Billund

CURRENT METAR :
  • 211850Z AUTO 27009KT 9999 FEW020/// 15/12 Q1019

EXPIRED METARs :
  • 211820Z AUTO 26010KT 9999 FEW021/// 16/12 Q1019
  • 211750Z AUTO 26012KT 9999 NCD 16/11 Q1019
  • 211720Z AUTO 27011KT 240V300 9999 FEW023/// 17/12 Q1019
  • 211650Z AUTO 28013KT 9999 FEW023/// 17/12 Q1019
  • 211620Z AUTO 27013KT 9999 SCT023/// 17/12 Q1018

TAF TAF EKBI
Valid from the 21 at 18:00 until the 22 at 18:00 UTC


211707Z 2118/2218 28012KT 9999 SCT020
TEMPO 2122/2205 3000 BR BKN006
BECMG 2122/2201 20005KT
BECMG 2209/2212 RADZ BKN012
BECMG 2215/2218 4000 BR BKN006
No reported NOTAMs for that airfield.



MET'MAP, your aeronautical weather chart ! - Copyright ORBIFLY December 2007 - Disclaimer

ORBIFLY MET'MAP TEAM :

Programming & Development : Alexandra Zaïnal
Concept & Development : Baudouin d'Aumeries
Co-Development & Prog : Marc-Olivier Méhu
Technical & hardware support : Manuel Goepfert

Contact : metmap@orbifly.com




SOURCES & CREDITS :

   NOAA